| time (UTC) | temp C | wind direction | speed KPH | gust KPH | rain 1hr cm | rain 24hr cm | rain mn cm | humidity % | barometer mb |
| 20260502123027 | 3 | 283 | 1.6 | 4.8 | 0.00 | 0.00 | 0.00 | 80 | 1022.7 |
| 20260502121526 | 3 | 291 | 0.0 | 3.2 | 0.00 | 0.00 | 0.00 | 79 | 1022.4 |
| 20260502114520 | 3 | 306 | 0.0 | 4.8 | 0.00 | 0.00 | 0.00 | 79 | 1022.0 |
| 20260502113019 | 3 | 278 | 0.0 | 4.8 | 0.00 | 0.00 | 0.00 | 79 | 1021.9 |
| 20260502111515 | 3 | 278 | 0.0 | 0.0 | 0.00 | 0.00 | 0.00 | 78 | 1021.7 |
| 20260502110019 | 3 | 278 | 0.0 | 1.6 | 0.00 | 0.00 | 0.00 | 77 | 1021.6 |
| 20260502104533 | 3 | 278 | 0.0 | 1.6 | 0.00 | 0.00 | 0.00 | 76 | 1021.6 |
| 20260502103010 | 3 | 278 | 0.0 | 4.8 | 0.00 | 0.00 | 0.00 | 76 | 1021.5 |
| 20260502101506 | 3 | 281 | 0.0 | 3.2 | 0.00 | 0.00 | 0.00 | 76 | 1021.3 |
| 20260502091524 | 5 | 290 | 1.6 | 4.8 | 0.00 | 0.00 | 0.00 | 71 | 1021.2 |
| 20260502070040 | 6 | 321 | 0.0 | 0.0 | 0.00 | 0.00 | 0.00 | 67 | 1020.9 |
| 20260502064541 | 6 | 321 | 0.0 | 0.0 | 0.00 | 0.00 | 0.00 | 66 | 1021.0 |
| 20260502063036 | 7 | 321 | 0.0 | 1.6 | 0.00 | 0.00 | 0.00 | 66 | 1020.9 |
| 20260502061533 | 7 | 321 | 0.0 | 3.2 | 0.00 | 0.00 | 0.00 | 65 | 1020.9 |
| 20260502060032 | 7 | 321 | 0.0 | 1.6 | 0.00 | 0.00 | 0.00 | 63 | 1020.8 |
| 20260502054530 | 7 | 321 | 0.0 | 4.8 | 0.00 | 0.00 | 0.00 | 62 | 1020.8 |
| 20260502053028 | 8 | 321 | 0.0 | 3.2 | 0.00 | 0.00 | 0.00 | 63 | 1020.8 |
| 20260502051546 | 8 | 322 | 0.0 | 1.6 | 0.00 | 0.00 | 0.00 | 63 | 1020.7 |
| 20260502050023 | 8 | 321 | 0.0 | 3.2 | 0.00 | 0.00 | 0.00 | 64 | 1020.6 |
| 20260502044522 | 8 | 335 | 0.0 | 4.8 | 0.00 | 0.00 | 0.00 | 64 | 1020.5 |
| 20260502043022 | 8 | 330 | 0.0 | 3.2 | 0.00 | 0.00 | 0.00 | 67 | 1020.3 |
| 20260502041522 | 9 | 331 | 0.0 | 4.8 | 0.00 | 0.00 | 0.00 | 66 | 1020.3 |
| 20260502040021 | 9 | 329 | 0.0 | 4.8 | 0.00 | 0.00 | 0.00 | 65 | 1020.3 |
| 20260502034535 | 10 | 321 | 0.0 | 3.2 | 0.00 | 0.00 | 0.00 | 65 | 1020.2 |
| 20260502033025 | 10 | 321 | 0.0 | 1.6 | 0.00 | 0.00 | 0.00 | 63 | 1020.1 |
| 20260502031519 | 11 | 321 | 0.0 | 1.6 | 0.00 | 0.00 | 0.00 | 62 | 1019.9 |
| 20260502030018 | 11 | 321 | 0.0 | 1.6 | 0.00 | 0.00 | 0.00 | 59 | 1019.7 |
| 20260502024517 | 11 | 321 | 0.0 | 4.8 | 0.00 | 0.00 | 0.00 | 59 | 1019.4 |
| 20260502023017 | 11 | 320 | 0.0 | 1.6 | 0.00 | 0.00 | 0.00 | 57 | 1019.0 |
| 20260502021517 | 12 | 320 | 0.0 | 0.0 | 0.00 | 0.00 | 0.00 | 55 | 1018.6 |
| 20260502020017 | 12 | 320 | 0.0 | 3.2 | 0.00 | 0.00 | 0.00 | 54 | 1018.4 |
| 20260502014523 | 13 | 320 | 0.0 | 3.2 | 0.00 | 0.00 | 0.00 | 54 | 1018.2 |
| 20260502013014 | 13 | 321 | 0.0 | 8.0 | 0.00 | 0.00 | 0.00 | 51 | 1018.0 |
| 20260502011521 | 13 | 333 | 1.6 | 6.4 | 0.00 | 0.00 | 0.00 | 50 | 1017.9 |
| 20260502010017 | 15 | 324 | 3.2 | 8.0 | 0.00 | 0.00 | 0.00 | 47 | 1017.7 |
| 20260502004513 | 15 | 300 | 4.8 | 11.3 | 0.00 | 0.00 | 0.00 | 43 | 1017.5 |
| 20260502003018 | 16 | 312 | 8.0 | 17.7 | 0.00 | 0.00 | 0.00 | 42 | 1017.3 |
| 20260502001512 | 17 | 312 | 6.4 | 14.5 | 0.00 | 0.00 | 0.00 | 40 | 1017.0 |
| 20260502000011 | 17 | 287 | 6.4 | 14.5 | 0.00 | 0.00 | 0.00 | 40 | 1016.9 |
| 20260501234510 | 17 | 317 | 8.0 | 17.7 | 0.00 | 0.00 | 0.00 | 38 | 1016.9 |
| 20260501233010 | 17 | 330 | 6.4 | 14.5 | 0.00 | 0.00 | 0.00 | 40 | 1016.9 |
| 20260501231521 | 17 | 283 | 6.4 | 19.3 | 0.00 | 0.00 | 0.00 | 42 | 1017.0 |
| 20260501230010 | 17 | 301 | 6.4 | 19.3 | 0.00 | 0.00 | 0.00 | 40 | 1016.9 |
| 20260501224506 | 17 | 307 | 9.7 | 25.7 | 0.00 | 0.00 | 0.00 | 37 | 1016.9 |
| 20260501223004 | 17 | 1 | 6.4 | 17.7 | 0.00 | 0.00 | 0.00 | 45 | 1017.0 |
| 20260501221504 | 16 | 325 | 6.4 | 12.9 | 0.00 | 0.00 | 0.00 | 43 | 1017.0 |
| 20260501220006 | 16 | 333 | 6.4 | 17.7 | 0.00 | 0.00 | 0.00 | 44 | 1017.1 |
| 20260501214503 | 17 | 300 | 12.9 | 24.1 | 0.00 | 0.00 | 0.00 | 40 | 1017.2 |
| 20260501213104 | 17 | 339 | 6.4 | 20.9 | 0.00 | 0.00 | 0.00 | 43 | 1017.4 |
| 20260501211557 | 17 | 359 | 6.4 | 17.7 | 0.00 | 0.00 | 0.00 | 43 | 1017.6 |
| 20260501210056 | 18 | 298 | 8.0 | 17.7 | 0.00 | 0.00 | 0.00 | 40 | 1017.8 |
| 20260501204553 | 17 | 335 | 9.7 | 17.7 | 0.00 | 0.00 | 0.00 | 40 | 1018.2 |
| 20260501203051 | 17 | 334 | 8.0 | 17.7 | 0.00 | 0.00 | 0.00 | 44 | 1018.4 |
| 20260501201551 | 18 | 324 | 9.7 | 20.9 | 0.00 | 0.00 | 0.00 | 41 | 1018.5 |
| 20260501200047 | 17 | 277 | 8.0 | 19.3 | 0.00 | 0.00 | 0.00 | 44 | 1018.6 |
| 20260501194556 | 17 | 258 | 9.7 | 22.5 | 0.00 | 0.00 | 0.00 | 41 | 1018.7 |
| 20260501193044 | 17 | 292 | 11.3 | 22.5 | 0.00 | 0.00 | 0.00 | 44 | 1018.8 |
| 20260501191544 | 16 | 301 | 9.7 | 20.9 | 0.00 | 0.00 | 0.00 | 41 | 1019.0 |
| 20260501190043 | 17 | 275 | 12.9 | 20.9 | 0.00 | 0.00 | 0.00 | 38 | 1018.9 |
| 20260501184641 | 17 | 255 | 11.3 | 27.4 | 0.00 | 0.00 | 0.00 | 41 | 1018.9 |
| 20260501183039 | 17 | 279 | 8.0 | 20.9 | 0.00 | 0.00 | 0.00 | 42 | 1019.1 |
| 20260501181540 | 17 | 281 | 8.0 | 19.3 | 0.00 | 0.00 | 0.00 | 40 | 1019.2 |
| 20260501180040 | 17 | 261 | 9.7 | 20.9 | 0.00 | 0.00 | 0.00 | 38 | 1019.4 |
| 20260501174533 | 16 | 286 | 6.4 | 19.3 | 0.00 | 0.00 | 0.00 | 42 | 1019.6 |
| 20260501173036 | 16 | 268 | 3.2 | 19.3 | 0.00 | 0.00 | 0.00 | 39 | 1019.7 |
| 20260501171532 | 16 | 248 | 3.2 | 14.5 | 0.00 | 0.00 | 0.00 | 42 | 1019.8 |
| 20260501170026 | 15 | 342 | 6.4 | 14.5 | 0.00 | 0.00 | 0.00 | 41 | 1020.0 |
| 20260501164533 | 15 | 359 | 8.0 | 14.5 | 0.00 | 0.00 | 0.00 | 43 | 1019.9 |
| 20260501163027 | 15 | 230 | 11.3 | 16.1 | 0.00 | 0.00 | 0.00 | 45 | 1020.1 |
| 20260501161520 | 14 | 228 | 9.7 | 17.7 | 0.00 | 0.00 | 0.00 | 47 | 1020.0 |
| 20260501160030 | 14 | 236 | 8.0 | 17.7 | 0.00 | 0.00 | 0.00 | 49 | 1020.1 |
| 20260501154516 | 13 | 247 | 11.3 | 16.1 | 0.00 | 0.00 | 0.00 | 50 | 1020.1 |
| 20260501153014 | 13 | 233 | 3.2 | 11.3 | 0.00 | 0.00 | 0.00 | 53 | 1019.8 |
| 20260501151511 | 13 | 215 | 6.4 | 14.5 | 0.00 | 0.00 | 0.00 | 51 | 1019.8 |
| 20260501150011 | 13 | 186 | 3.2 | 14.5 | 0.00 | 0.00 | 0.00 | 58 | 1019.8 |
| 20260501144508 | 12 | 200 | 6.4 | 12.9 | 0.00 | 0.00 | 0.00 | 56 | 1019.8 |